Time;durP1;ratioP1;P1;durP2;ratioP2;P2;SDS_P1;SDS_P2;PMS_P1;PMS_P2;Temp;Humidity;BMP_temperature;BMP_pressure;BME280_temperature;BME280_humidity;BME280_pressure;Samples;Min_cycle;Max_cycle;Signal;HPM_P1;HPM_P2
2021/05/04 00:01:41;;;;;;;6.00;3.53;;;;;;;;;;5135293;27;21084;-72
2021/05/04 00:04:08;;;;;;;3.67;3.10;;;;;;;;;;5134924;27;20287;-72
2021/05/04 00:06:35;;;;;;;4.50;4.10;;;;;;;;;;5134952;27;20296;-72
2021/05/04 00:09:04;;;;;;;9.90;4.13;;;;;;;;;;5134875;27;20630;-72
2021/05/04 00:11:31;;;;;;;7.13;4.27;;;;;;;;;;5124089;27;20756;-72
2021/05/04 00:13:58;;;;;;;6.70;3.47;;;;;;;;;;5121243;28;20287;-72
2021/05/04 00:16:25;;;;;;;4.83;3.80;;;;;;;;;;5121337;28;20224;-72
2021/05/04 00:18:52;;;;;;;4.70;3.70;;;;;;;;;;5120935;28;20229;-72
2021/05/04 00:21:19;;;;;;;4.40;3.70;;;;;;;;;;5121274;28;20212;-73
2021/05/04 00:23:46;;;;;;;6.53;3.90;;;;;;;;;;5120888;28;20655;-73
2021/05/04 00:26:14;;;;;;;5.77;4.33;;;;;;;;;;5120998;28;20309;-73
2021/05/04 00:28:41;;;;;;;4.90;4.23;;;;;;;;;;5120529;28;20209;-73
2021/05/04 00:31:08;;;;;;;4.60;4.17;;;;;;;;;;5121136;28;20243;-72
2021/05/04 00:33:35;;;;;;;5.57;4.30;;;;;;;;;;5120954;28;20291;-72
2021/05/04 00:36:02;;;;;;;6.67;4.30;;;;;;;;;;5120856;28;20300;-72
2021/05/04 00:38:29;;;;;;;7.53;4.20;;;;;;;;;;5120633;28;20732;-72
2021/05/04 00:40:56;;;;;;;6.70;4.13;;;;;;;;;;5120717;28;20224;-72
2021/05/04 00:43:27;;;;;;;7.50;3.80;;;;;;;;;;5120381;28;20209;-72
2021/05/04 00:45:54;;;;;;;6.77;3.87;;;;;;;;;;5120611;28;20263;-72
2021/05/04 00:48:21;;;;;;;4.27;3.63;;;;;;;;;;5120689;28;20201;-72
2021/05/04 00:50:48;;;;;;;5.67;3.30;;;;;;;;;;5120626;28;20232;-72
2021/05/04 00:53:15;;;;;;;6.17;3.97;;;;;;;;;;5120661;28;20230;-72
2021/05/04 00:55:43;;;;;;;4.87;3.60;;;;;;;;;;5120558;28;20319;-73
2021/05/04 00:58:12;;;;;;;4.90;4.07;;;;;;;;;;5120242;28;20205;-72
2021/05/04 01:00:40;;;;;;;8.67;4.00;;;;;;;;;;5119961;28;20787;-72
2021/05/04 01:03:07;;;;;;;5.57;3.93;;;;;;;;;;5120196;28;20316;-72
2021/05/04 01:05:34;;;;;;;5.10;3.90;;;;;;;;;;5120350;28;20284;-72
2021/05/04 01:08:02;;;;;;;3.70;3.40;;;;;;;;;;5120131;28;20201;-72
2021/05/04 01:10:29;;;;;;;7.77;4.23;;;;;;;;;;5120027;28;20201;-72
2021/05/04 01:12:56;;;;;;;5.63;4.30;;;;;;;;;;5119705;28;20295;-72
2021/05/04 01:15:24;;;;;;;5.87;3.63;;;;;;;;;;5119890;28;20584;-72
2021/05/04 01:17:52;;;;;;;5.20;4.00;;;;;;;;;;5120028;28;20197;-72
2021/05/04 01:20:19;;;;;;;7.10;3.90;;;;;;;;;;5120050;27;20312;-72
2021/05/04 01:22:47;;;;;;;6.27;4.20;;;;;;;;;;5118708;28;20231;-72
2021/05/04 01:25:14;;;;;;;5.03;3.77;;;;;;;;;;5119730;28;20565;-72
2021/05/04 01:27:41;;;;;;;5.93;3.77;;;;;;;;;;5119519;28;20295;-72
2021/05/04 01:30:09;;;;;;;5.53;3.70;;;;;;;;;;5119942;28;20211;-72
2021/05/04 01:32:36;;;;;;;4.83;4.00;;;;;;;;;;5119936;28;20244;-73
2021/05/04 01:35:05;;;;;;;6.53;3.73;;;;;;;;;;5119901;28;20221;-73
2021/05/04 01:37:32;;;;;;;4.20;3.73;;;;;;;;;;5119517;28;20282;-72
2021/05/04 01:40:00;;;;;;;3.97;3.60;;;;;;;;;;5119586;28;20312;-72
2021/05/04 01:42:27;;;;;;;5.33;3.57;;;;;;;;;;5119324;28;20205;-72
2021/05/04 01:44:54;;;;;;;5.47;3.83;;;;;;;;;;5119446;28;20308;-72
2021/05/04 01:47:21;;;;;;;6.40;3.90;;;;;;;;;;5119391;28;20205;-72
2021/05/04 01:49:49;;;;;;;6.50;4.00;;;;;;;;;;5119195;28;20549;-72
2021/05/04 01:52:16;;;;;;;3.73;3.43;;;;;;;;;;5119215;28;20241;-73
2021/05/04 01:54:44;;;;;;;5.80;4.40;;;;;;;;;;5119358;28;20263;-72
2021/05/04 01:57:12;;;;;;;4.40;3.40;;;;;;;;;;5118935;28;20287;-72
2021/05/04 01:59:39;;;;;;;6.10;3.90;;;;;;;;;;5118944;28;20296;-72
2021/05/04 02:02:06;;;;;;;4.50;3.80;;;;;;;;;;5119293;28;20292;-72
2021/05/04 02:04:33;;;;;;;4.23;3.67;;;;;;;;;;5119180;28;20304;-72
2021/05/04 02:07:03;;;;;;;4.17;3.57;;;;;;;;;;5118956;28;20212;-72
2021/05/04 02:09:30;;;;;;;7.47;4.07;;;;;;;;;;5119107;28;20280;-72
2021/05/04 02:11:57;;;;;;;4.20;3.80;;;;;;;;;;5118396;28;20248;-73
2021/05/04 02:14:25;;;;;;;4.53;3.33;;;;;;;;;;5119019;28;20307;-72
2021/05/04 02:16:52;;;;;;;5.30;3.53;;;;;;;;;;5118949;28;20235;-72
2021/05/04 02:19:19;;;;;;;3.60;2.97;;;;;;;;;;5118640;27;20251;-72
2021/05/04 02:21:46;;;;;;;3.57;3.27;;;;;;;;;;5118927;28;20208;-72
2021/05/04 02:24:13;;;;;;;6.27;3.43;;;;;;;;;;5118785;28;20237;-72
2021/05/04 02:26:40;;;;;;;5.50;3.60;;;;;;;;;;5118486;28;20242;-72
2021/05/04 02:29:07;;;;;;;5.10;2.73;;;;;;;;;;5118719;28;20228;-72
2021/05/04 02:31:35;;;;;;;3.37;3.07;;;;;;;;;;5118835;28;20205;-72
2021/05/04 02:34:02;;;;;;;3.90;3.27;;;;;;;;;;5118076;28;20208;-72
2021/05/04 02:36:30;;;;;;;3.83;3.13;;;;;;;;;;5109705;28;20270;-72
2021/05/04 02:38:57;;;;;;;9.20;3.43;;;;;;;;;;5118815;28;20216;-72
2021/05/04 02:41:24;;;;;;;5.77;3.27;;;;;;;;;;5118118;28;20782;-72
2021/05/04 02:43:51;;;;;;;3.57;3.27;;;;;;;;;;5118365;28;20230;-72
2021/05/04 02:46:18;;;;;;;4.73;3.40;;;;;;;;;;5118468;28;20256;-72
2021/05/04 02:48:46;;;;;;;3.57;3.27;;;;;;;;;;5118262;28;20296;-72
2021/05/04 02:51:12;;;;;;;3.80;3.40;;;;;;;;;;5118499;28;20283;-72
2021/05/04 02:53:40;;;;;;;4.77;4.27;;;;;;;;;;5118459;28;20288;-72
2021/05/04 02:56:07;;;;;;;3.73;2.93;;;;;;;;;;5118444;28;20261;-72
2021/05/04 02:58:34;;;;;;;3.47;3.13;;;;;;;;;;5117687;28;20632;-72
2021/05/04 03:01:01;;;;;;;5.03;3.07;;;;;;;;;;5118393;28;20260;-72
2021/05/04 03:03:29;;;;;;;4.23;3.20;;;;;;;;;;5118110;28;20209;-72
2021/05/04 03:05:56;;;;;;;4.63;3.30;;;;;;;;;;5118368;28;20278;-72
2021/05/04 03:08:24;;;;;;;4.23;3.07;;;;;;;;;;5118423;28;20243;-72
2021/05/04 03:10:51;;;;;;;3.30;3.00;;;;;;;;;;5118085;28;20283;-72
2021/05/04 03:13:22;;;;;;;4.50;3.33;;;;;;;;;;5119328;28;20229;-72
2021/05/04 03:15:49;;;;;;;3.03;2.77;;;;;;;;;;5125212;28;20295;-72
2021/05/04 03:18:16;;;;;;;3.70;3.30;;;;;;;;;;5127600;28;20280;-72
2021/05/04 03:20:43;;;;;;;3.00;2.70;;;;;;;;;;5123578;28;20626;-72
2021/05/04 03:23:12;;;;;;;3.50;3.30;;;;;;;;;;5126934;27;20200;-72
2021/05/04 03:25:41;;;;;;;4.67;2.77;;;;;;;;;;5128062;28;20220;-72
2021/05/04 03:28:08;;;;;;;5.03;2.70;;;;;;;;;;5126299;28;20284;-72
2021/05/04 03:30:36;;;;;;;6.40;2.93;;;;;;;;;;5125809;27;20235;-72
2021/05/04 03:33:02;;;;;;;2.90;2.70;;;;;;;;;;5123339;28;20668;-72
2021/05/04 03:35:30;;;;;;;5.27;3.00;;;;;;;;;;5126779;27;20260;-72
2021/05/04 03:37:57;;;;;;;3.03;2.83;;;;;;;;;;5128081;28;20283;-72
2021/05/04 03:40:25;;;;;;;3.57;2.83;;;;;;;;;;5126379;28;20386;-72
2021/05/04 03:42:52;;;;;;;3.30;3.00;;;;;;;;;;5126208;27;20644;-72
2021/05/04 03:45:19;;;;;;;3.93;3.00;;;;;;;;;;5127454;27;20230;-72
2021/05/04 03:47:46;;;;;;;3.67;2.93;;;;;;;;;;5130484;27;20200;-72
2021/05/04 03:50:14;;;;;;;3.80;2.80;;;;;;;;;;5131520;27;20708;-72
2021/05/04 03:52:41;;;;;;;4.17;3.33;;;;;;;;;;5123889;27;20205;-72
2021/05/04 03:55:09;;;;;;;4.73;3.27;;;;;;;;;;5121293;28;20311;-72
2021/05/04 03:57:37;;;;;;;5.47;2.93;;;;;;;;;;5121013;28;20674;-72
2021/05/04 04:00:06;;;;;;;5.80;3.17;;;;;;;;;;5126404;27;20285;-72
2021/05/04 04:02:33;;;;;;;3.40;3.13;;;;;;;;;;5142208;27;20212;-72
2021/05/04 04:05:00;;;;;;;3.53;3.20;;;;;;;;;;5142132;27;20352;-72
2021/05/04 04:07:30;;;;;;;4.43;3.07;;;;;;;;;;5142031;27;20208;-72
2021/05/04 04:09:57;;;;;;;4.60;3.57;;;;;;;;;;5141843;27;20207;-72
2021/05/04 04:12:24;;;;;;;4.47;2.97;;;;;;;;;;5121195;27;20242;-72
2021/05/04 04:14:53;;;;;;;4.10;3.60;;;;;;;;;;5120992;28;20256;-72
2021/05/04 04:17:20;;;;;;;4.13;3.00;;;;;;;;;;5121077;28;20605;-72
2021/05/04 04:19:47;;;;;;;5.80;3.27;;;;;;;;;;5121278;28;20450;-72
2021/05/04 04:22:14;;;;;;;3.17;2.83;;;;;;;;;;5121170;28;20660;-72
2021/05/04 04:24:41;;;;;;;3.30;3.00;;;;;;;;;;5120705;28;20232;-72
2021/05/04 04:27:08;;;;;;;3.20;2.90;;;;;;;;;;5120848;28;20277;-72
2021/05/04 04:29:36;;;;;;;4.00;2.80;;;;;;;;;;5120842;28;20209;-72
2021/05/04 04:32:04;;;;;;;4.17;3.17;;;;;;;;;;5120756;28;20236;-72
2021/05/04 04:34:31;;;;;;;3.87;3.30;;;;;;;;;;5120739;27;20240;-73
2021/05/04 04:36:59;;;;;;;3.80;3.43;;;;;;;;;;5120709;27;20724;-73
2021/05/04 04:39:26;;;;;;;4.10;3.30;;;;;;;;;;5120576;28;20618;-73
2021/05/04 04:41:53;;;;;;;4.27;3.50;;;;;;;;;;5120219;28;20236;-72
2021/05/04 04:44:20;;;;;;;5.50;3.17;;;;;;;;;;5120466;28;20327;-72
2021/05/04 04:46:47;;;;;;;4.20;3.37;;;;;;;;;;5120757;28;20217;-72
2021/05/04 04:49:16;;;;;;;3.30;3.00;;;;;;;;;;5120779;28;20209;-72
2021/05/04 04:51:44;;;;;;;4.33;3.17;;;;;;;;;;5120459;28;20641;-72
2021/05/04 04:54:11;;;;;;;4.50;3.27;;;;;;;;;;5120418;28;20704;-72
2021/05/04 04:56:38;;;;;;;4.80;3.13;;;;;;;;;;5119802;28;20208;-72
2021/05/04 04:59:06;;;;;;;4.73;2.93;;;;;;;;;;5120115;28;20240;-72
2021/05/04 05:01:33;;;;;;;3.20;2.90;;;;;;;;;;5120464;28;20268;-72
2021/05/04 05:04:01;;;;;;;3.37;3.07;;;;;;;;;;5120170;28;20561;-69
2021/05/04 05:06:29;;;;;;;5.07;3.20;;;;;;;;;;5120355;28;20200;-71
2021/05/04 05:08:59;;;;;;;5.37;3.30;;;;;;;;;;5120152;28;20676;-71
2021/05/04 05:11:26;;;;;;;3.13;2.83;;;;;;;;;;5119789;28;20280;-71
2021/05/04 05:13:53;;;;;;;3.17;2.77;;;;;;;;;;5120332;28;20240;-70
2021/05/04 05:16:21;;;;;;;3.17;2.50;;;;;;;;;;5119865;28;20267;-71
2021/05/04 05:18:51;;;;;;;2.70;2.50;;;;;;;;;;5120471;28;20204;-71
2021/05/04 05:21:19;;;;;;;2.97;2.70;;;;;;;;;;5119983;28;20236;-71
2021/05/04 05:23:47;;;;;;;2.83;2.53;;;;;;;;;;5119520;28;20240;-71
2021/05/04 05:26:16;;;;;;;4.60;2.97;;;;;;;;;;5119770;27;20217;-71
2021/05/04 05:28:43;;;;;;;4.60;2.40;;;;;;;;;;5119175;28;20220;-71
2021/05/04 05:31:10;;;;;;;3.50;2.57;;;;;;;;;;5119967;27;20201;-72
2021/05/04 05:33:37;;;;;;;4.37;2.83;;;;;;;;;;5120290;27;20215;-71
2021/05/04 05:36:05;;;;;;;2.60;2.40;;;;;;;;;;5118370;27;20378;-75
2021/05/04 05:38:35;;;;;;;3.10;2.80;;;;;;;;;;5121155;27;20205;-72
2021/05/04 05:41:03;;;;;;;2.87;2.50;;;;;;;;;;5118856;28;20219;-72
2021/05/04 05:43:30;;;;;;;4.90;2.47;;;;;;;;;;5119297;27;20720;-71
2021/05/04 05:45:58;;;;;;;2.60;2.40;;;;;;;;;;5120415;27;20633;-72
2021/05/04 05:48:26;;;;;;;4.20;2.93;;;;;;;;;;5118479;27;20205;-72
2021/05/04 05:50:53;;;;;;;2.87;2.33;;;;;;;;;;5121505;27;20228;-72
2021/05/04 05:53:20;;;;;;;3.37;2.37;;;;;;;;;;5120092;27;20279;-72
2021/05/04 05:55:48;;;;;;;2.60;2.40;;;;;;;;;;5130095;27;20306;-72
2021/05/04 05:58:16;;;;;;;3.20;2.43;;;;;;;;;;5139576;27;20232;-73
2021/05/04 06:00:43;;;;;;;4.83;3.10;;;;;;;;;;5139796;27;20229;-73
2021/05/04 06:03:10;;;;;;;2.23;2.03;;;;;;;;;;5139574;27;20631;-74
2021/05/04 06:05:37;;;;;;;1.97;1.87;;;;;;;;;;5139508;27;20232;-73
2021/05/04 06:08:05;;;;;;;5.30;2.00;;;;;;;;;;5139106;27;20609;-73
2021/05/04 06:10:32;;;;;;;2.77;1.90;;;;;;;;;;5139508;27;20295;-73
2021/05/04 06:12:59;;;;;;;2.20;2.00;;;;;;;;;;5113649;27;20204;-73
2021/05/04 06:15:28;;;;;;;4.43;2.30;;;;;;;;;;5118730;28;20654;-73
2021/05/04 06:17:55;;;;;;;3.43;2.20;;;;;;;;;;5118598;28;20222;-73
2021/05/04 06:20:22;;;;;;;2.27;2.07;;;;;;;;;;5118903;28;20231;-73
2021/05/04 06:22:49;;;;;;;3.77;2.40;;;;;;;;;;5118904;28;20211;-73
2021/05/04 06:25:16;;;;;;;3.20;2.10;;;;;;;;;;5109583;28;20228;-74
2021/05/04 06:27:43;;;;;;;2.40;2.20;;;;;;;;;;5117721;28;20244;-74
2021/05/04 06:30:12;;;;;;;31.50;23.20;;;;;;;;;;5118493;28;20629;-73
2021/05/04 06:32:41;;;;;;;5.43;2.73;;;;;;;;;;5118525;28;20733;-73
2021/05/04 06:35:08;;;;;;;3.47;2.70;;;;;;;;;;5112678;27;20630;-74
2021/05/04 06:37:36;;;;;;;4.57;2.00;;;;;;;;;;5104027;28;20236;-74
2021/05/04 06:40:04;;;;;;;2.60;2.40;;;;;;;;;;5106524;28;20304;-74
2021/05/04 06:42:31;;;;;;;2.87;2.20;;;;;;;;;;5105564;28;20657;-74
2021/05/04 06:44:58;;;;;;;2.20;2.10;;;;;;;;;;5107241;28;20658;-74
2021/05/04 06:47:25;;;;;;;5.53;2.80;;;;;;;;;;5106358;28;20212;-74
2021/05/04 06:49:53;;;;;;;8.70;2.27;;;;;;;;;;5126562;27;20544;-74
2021/05/04 06:52:20;;;;;;;5.03;2.60;;;;;;;;;;5138570;27;20204;-74
2021/05/04 06:54:47;;;;;;;2.77;2.50;;;;;;;;;;5138751;27;20266;-74
2021/05/04 06:57:14;;;;;;;2.60;2.23;;;;;;;;;;5138270;27;20257;-74
2021/05/04 06:59:42;;;;;;;3.63;2.47;;;;;;;;;;5138455;27;20240;-74
2021/05/04 07:02:09;;;;;;;2.77;2.40;;;;;;;;;;5122424;27;20291;-74
2021/05/04 07:04:36;;;;;;;3.33;2.67;;;;;;;;;;5117837;28;20233;-74
2021/05/04 07:07:04;;;;;;;2.23;2.03;;;;;;;;;;5112362;28;20289;-73
2021/05/04 07:09:31;;;;;;;3.53;2.10;;;;;;;;;;5105660;28;20201;-73
2021/05/04 07:11:59;;;;;;;3.80;2.30;;;;;;;;;;5102094;28;20305;-74
2021/05/04 07:14:26;;;;;;;6.17;2.30;;;;;;;;;;5124069;28;20274;-73
2021/05/04 07:16:53;;;;;;;2.30;2.07;;;;;;;;;;5117016;27;20287;-74
2021/05/04 07:19:20;;;;;;;4.33;2.87;;;;;;;;;;5117252;28;20242;-74
2021/05/04 07:21:48;;;;;;;2.43;2.23;;;;;;;;;;5109299;28;20315;-74
2021/05/04 07:24:15;;;;;;;2.57;2.37;;;;;;;;;;5121706;28;20235;-74
2021/05/04 07:26:42;;;;;;;2.63;2.43;;;;;;;;;;5120951;28;20315;-73
2021/05/04 07:29:10;;;;;;;5.10;2.33;;;;;;;;;;5121437;28;20664;-74
2021/05/04 07:31:37;;;;;;;2.90;2.67;;;;;;;;;;5110660;28;20227;-74
2021/05/04 07:34:04;;;;;;;3.10;2.43;;;;;;;;;;5119752;28;20193;-73
2021/05/04 07:36:31;;;;;;;4.17;2.60;;;;;;;;;;5121809;28;20258;-74
2021/05/04 07:38:59;;;;;;;6.97;2.70;;;;;;;;;;5120813;28;20201;-73
2021/05/04 07:41:27;;;;;;;2.93;2.23;;;;;;;;;;5120342;28;20259;-74
2021/05/04 07:43:54;;;;;;;5.33;2.90;;;;;;;;;;5121426;27;20728;-74
2021/05/04 07:46:21;;;;;;;5.23;2.80;;;;;;;;;;5121012;28;20260;-74
2021/05/04 07:48:48;;;;;;;2.60;2.40;;;;;;;;;;5121294;28;20212;-74
2021/05/04 07:51:29;;;;;;;2.47;2.27;;;;;;;;;;5119040;28;20652;-74
2021/05/04 07:53:57;;;;;;;4.03;2.47;;;;;;;;;;5106280;28;20236;-71
2021/05/04 07:56:24;;;;;;;2.60;2.20;;;;;;;;;;5108854;28;20244;-74
2021/05/04 07:58:52;;;;;;;2.63;2.43;;;;;;;;;;5106477;28;20688;-73
2021/05/04 08:01:19;;;;;;;3.63;2.90;;;;;;;;;;5120793;28;20229;-74
2021/05/04 08:03:46;;;;;;;2.80;2.47;;;;;;;;;;5121100;28;20246;-73
2021/05/04 08:06:13;;;;;;;4.03;2.87;;;;;;;;;;5120597;28;20303;-73
2021/05/04 08:08:40;;;;;;;3.73;2.47;;;;;;;;;;5120755;28;20640;-74
2021/05/04 08:11:07;;;;;;;2.77;2.57;;;;;;;;;;5120373;27;20230;-70
2021/05/04 08:13:35;;;;;;;4.77;2.60;;;;;;;;;;5108733;28;20319;-71
2021/05/04 08:16:07;;;;;;;5.53;2.57;;;;;;;;;;5120476;27;20232;-71
2021/05/04 08:18:34;;;;;;;4.37;2.53;;;;;;;;;;5120052;28;20266;-71
2021/05/04 08:21:02;;;;;;;4.30;2.43;;;;;;;;;;5105632;28;20217;-71
2021/05/04 08:23:29;;;;;;;5.77;2.70;;;;;;;;;;5103796;28;20300;-71
2021/05/04 08:25:56;;;;;;;3.83;2.40;;;;;;;;;;5107844;28;20255;-71
2021/05/04 08:28:23;;;;;;;4.03;2.43;;;;;;;;;;5110944;28;20264;-71
2021/05/04 08:30:51;;;;;;;6.97;2.67;;;;;;;;;;5119685;28;20197;-71
2021/05/04 08:33:19;;;;;;;2.77;2.23;;;;;;;;;;5118888;28;20752;-71
2021/05/04 08:35:46;;;;;;;2.67;2.43;;;;;;;;;;5120227;28;20311;-71
2021/05/04 08:38:14;;;;;;;2.33;2.03;;;;;;;;;;5120256;28;20245;-72
2021/05/04 08:40:41;;;;;;;2.97;2.10;;;;;;;;;;5120012;28;20225;-71
2021/05/04 08:43:08;;;;;;;3.33;2.40;;;;;;;;;;5119488;28;20325;-71
2021/05/04 08:45:35;;;;;;;2.40;2.13;;;;;;;;;;5120059;28;20351;-71
2021/05/04 08:48:03;;;;;;;3.23;2.27;;;;;;;;;;5119916;28;20654;-71
2021/05/04 08:50:35;;;;;;;3.67;2.20;;;;;;;;;;5120150;28;20208;-71
2021/05/04 08:53:03;;;;;;;2.87;2.40;;;;;;;;;;5119811;28;20315;-71
2021/05/04 08:55:30;;;;;;;2.67;2.10;;;;;;;;;;5119707;28;20304;-71
2021/05/04 08:58:02;;;;;;;3.03;2.50;;;;;;;;;;5119326;28;20204;-71
2021/05/04 09:00:49;;;;;;;4.50;2.30;;;;;;;;;;5119855;27;20225;-71
2021/05/04 09:03:19;;;;;;;2.07;1.93;;;;;;;;;;5119860;28;20211;-71
2021/05/04 09:05:52;;;;;;;3.37;2.30;;;;;;;;;;5119686;28;20252;-71
2021/05/04 09:08:30;;;;;;;1.83;1.73;;;;;;;;;;5119749;28;20209;-71
2021/05/04 09:11:00;;;;;;;2.17;2.00;;;;;;;;;;5119303;28;20677;-71
2021/05/04 09:13:36;;;;;;;2.63;2.17;;;;;;;;;;5112003;28;20205;-71
2021/05/04 09:16:27;;;;;;;2.50;2.10;;;;;;;;;;5119341;28;20308;-71
2021/05/04 09:19:16;;;;;;;2.67;2.10;;;;;;;;;;5132907;27;20745;-72
2021/05/04 09:21:44;;;;;;;2.57;2.20;;;;;;;;;;5119537;28;20259;-71
2021/05/04 09:24:21;;;;;;;2.43;1.97;;;;;;;;;;5119363;28;20236;-71
2021/05/04 09:26:48;;;;;;;2.27;2.13;;;;;;;;;;5118738;28;20209;-72
2021/05/04 09:29:16;;;;;;;3.63;3.17;;;;;;;;;;5118338;28;20232;-72
2021/05/04 09:31:43;;;;;;;3.60;2.40;;;;;;;;;;5117990;28;20626;-72
2021/05/04 09:34:11;;;;;;;2.50;2.10;;;;;;;;;;5120142;27;20197;-72
2021/05/04 09:36:46;;;;;;;2.97;1.67;;;;;;;;;;5113971;28;20744;-70
2021/05/04 09:39:24;;;;;;;2.50;2.00;;;;;;;;;;5118176;27;20196;-70
2021/05/04 09:41:51;;;;;;;2.37;2.17;;;;;;;;;;5120546;27;20250;-70
2021/05/04 09:44:33;;;;;;;2.30;2.10;;;;;;;;;;5114682;28;20692;-70
2021/05/04 09:47:00;;;;;;;2.27;1.83;;;;;;;;;;5118651;28;20208;-71
2021/05/04 09:49:28;;;;;;;1.67;1.43;;;;;;;;;;5118895;28;20212;-70
2021/05/04 09:52:15;;;;;;;5.07;2.10;;;;;;;;;;5119105;28;20205;-70
2021/05/04 09:54:42;;;;;;;2.73;2.13;;;;;;;;;;5115628;28;20232;-71
2021/05/04 09:57:24;;;;;;;2.07;1.83;;;;;;;;;;5120426;27;20570;-70
2021/05/04 09:59:51;;;;;;;1.80;1.70;;;;;;;;;;5110796;27;20315;-71
2021/05/04 10:02:18;;;;;;;3.37;1.70;;;;;;;;;;5106318;28;20256;-72
2021/05/04 10:04:46;;;;;;;3.90;1.93;;;;;;;;;;5099145;28;20224;-71
2021/05/04 10:07:14;;;;;;;2.07;1.87;;;;;;;;;;5107294;28;20228;-72
2021/05/04 10:09:41;;;;;;;1.77;1.67;;;;;;;;;;5117210;28;20610;-71
2021/05/04 10:12:11;;;;;;;2.77;1.87;;;;;;;;;;5111196;27;20209;-72
2021/05/04 10:14:40;;;;;;;3.53;1.80;;;;;;;;;;5104617;28;20229;-72
2021/05/04 10:17:08;;;;;;;2.70;1.63;;;;;;;;;;5106509;28;20204;-72
2021/05/04 10:19:36;;;;;;;1.87;1.70;;;;;;;;;;5115712;28;20624;-72
2021/05/04 10:22:04;;;;;;;2.10;1.70;;;;;;;;;;5106266;28;20255;-72
2021/05/04 10:24:33;;;;;;;2.50;1.83;;;;;;;;;;5108049;28;20280;-72
2021/05/04 10:27:01;;;;;;;2.27;1.77;;;;;;;;;;5112740;28;20201;-72
2021/05/04 10:29:28;;;;;;;2.73;1.80;;;;;;;;;;5119910;27;20279;-72
2021/05/04 10:31:57;;;;;;;1.77;1.60;;;;;;;;;;5124372;27;20279;-72
2021/05/04 10:34:30;;;;;;;5.00;2.03;;;;;;;;;;5117890;28;20231;-71
2021/05/04 10:36:58;;;;;;;2.20;1.63;;;;;;;;;;5118138;28;20205;-72
2021/05/04 10:39:35;;;;;;;2.47;1.77;;;;;;;;;;5109780;28;20585;-71
2021/05/04 10:42:04;;;;;;;4.97;1.80;;;;;;;;;;5108157;28;20557;-71
2021/05/04 10:44:52;;;;;;;3.83;1.93;;;;;;;;;;5105094;28;20296;-71
2021/05/04 10:47:34;;;;;;;1.80;1.60;;;;;;;;;;5106351;28;20615;-71
2021/05/04 10:50:01;;;;;;;2.67;1.37;;;;;;;;;;5105654;28;20645;-71
2021/05/04 10:52:54;;;;;;;1.43;1.37;;;;;;;;;;5106961;28;20201;-71
2021/05/04 10:55:23;;;;;;;1.80;1.40;;;;;;;;;;5106093;28;20299;-71
2021/05/04 10:58:09;;;;;;;1.63;1.57;;;;;;;;;;5103306;28;20303;-71
2021/05/04 11:00:52;;;;;;;2.63;1.70;;;;;;;;;;5107987;28;20257;-71
2021/05/04 11:03:38;;;;;;;2.67;1.60;;;;;;;;;;5111474;28;20295;-71
2021/05/04 11:06:06;;;;;;;2.33;1.50;;;;;;;;;;5112496;28;20252;-70
2021/05/04 11:08:48;;;;;;;1.60;1.30;;;;;;;;;;5116362;27;20197;-70
2021/05/04 11:11:23;;;;;;;2.00;1.90;;;;;;;;;;5092024;28;20223;-70
2021/05/04 11:13:51;;;;;;;2.00;1.63;;;;;;;;;;5119005;28;20199;-70
2021/05/04 11:16:28;;;;;;;2.37;1.80;;;;;;;;;;5126193;27;20224;-70
2021/05/04 11:19:03;;;;;;;4.07;1.97;;;;;;;;;;5098208;28;20721;-69
2021/05/04 11:21:37;;;;;;;1.73;1.50;;;;;;;;;;5101461;28;20224;-70
2021/05/04 11:24:05;;;;;;;2.67;1.63;;;;;;;;;;5116444;28;20291;-70
2021/05/04 11:26:50;;;;;;;1.50;1.40;;;;;;;;;;5117297;28;20243;-70
2021/05/04 11:29:18;;;;;;;4.83;1.70;;;;;;;;;;5104899;28;20289;-70
2021/05/04 11:31:46;;;;;;;2.53;1.63;;;;;;;;;;5105281;28;20645;-70
2021/05/04 11:34:32;;;;;;;2.50;1.63;;;;;;;;;;5112070;28;20224;-70
2021/05/04 11:36:59;;;;;;;2.80;2.00;;;;;;;;;;5109284;28;20202;-70
2021/05/04 11:39:26;;;;;;;2.63;1.50;;;;;;;;;;5108533;28;20265;-71
2021/05/04 11:41:56;;;;;;;1.47;1.40;;;;;;;;;;5110554;28;20280;-70
2021/05/04 11:44:27;;;;;;;2.23;1.30;;;;;;;;;;5110605;28;20225;-69
2021/05/04 11:46:54;;;;;;;1.73;1.33;;;;;;;;;;5110922;28;20194;-70
2021/05/04 11:49:25;;;;;;;2.67;1.93;;;;;;;;;;5103652;28;20284;-70
2021/05/04 11:52:10;;;;;;;2.57;1.80;;;;;;;;;;5117310;28;20197;-70
2021/05/04 11:54:37;;;;;;;2.43;1.40;;;;;;;;;;5117258;28;20225;-70
2021/05/04 11:57:05;;;;;;;2.40;1.70;;;;;;;;;;5107446;28;20222;-68
2021/05/04 11:59:53;;;;;;;3.80;1.53;;;;;;;;;;5104936;28;20760;-70
2021/05/04 12:02:27;;;;;;;1.93;1.73;;;;;;;;;;5102631;28;20693;-70
2021/05/04 12:04:54;;;;;;;4.17;1.50;;;;;;;;;;5103816;28;20229;-70
2021/05/04 12:07:37;;;;;;;2.07;1.67;;;;;;;;;;5106128;28;20194;-69
2021/05/04 12:10:05;;;;;;;2.50;1.70;;;;;;;;;;5111981;28;20260;-69
2021/05/04 12:12:39;;;;;;;1.57;1.43;;;;;;;;;;5108927;28;20229;-70
2021/05/04 12:15:08;;;;;;;3.33;1.20;;;;;;;;;;5106951;28;21275;-71
2021/05/04 12:17:35;;;;;;;2.10;1.40;;;;;;;;;;5110334;28;20283;-71
2021/05/04 12:20:10;;;;;;;2.33;1.50;;;;;;;;;;5105187;28;20210;-70
2021/05/04 12:22:43;;;;;;;2.13;1.20;;;;;;;;;;5118895;28;20284;-70
2021/05/04 12:25:11;;;;;;;3.30;1.87;;;;;;;;;;5120438;27;20274;-70
2021/05/04 12:27:38;;;;;;;2.27;1.33;;;;;;;;;;5109692;28;20325;-71
2021/05/04 12:30:09;;;;;;;1.50;1.40;;;;;;;;;;5116020;28;20284;-69
2021/05/04 12:32:36;;;;;;;2.03;1.50;;;;;;;;;;5120539;28;20664;-70
2021/05/04 12:35:16;;;;;;;3.80;1.37;;;;;;;;;;5117897;27;20269;-69
2021/05/04 12:37:44;;;;;;;2.47;1.73;;;;;;;;;;5117270;28;20264;-69
2021/05/04 12:40:15;;;;;;;2.03;1.40;;;;;;;;;;5117568;28;20646;-70
2021/05/04 12:42:43;;;;;;;6.10;5.17;;;;;;;;;;5118305;28;20660;-70
2021/05/04 12:45:12;;;;;;;2.63;2.43;;;;;;;;;;5107436;28;20221;-68
2021/05/04 12:47:49;;;;;;;2.97;2.50;;;;;;;;;;5118044;28;20205;-69
2021/05/04 12:50:26;;;;;;;3.13;2.43;;;;;;;;;;5118288;27;20284;-68
2021/05/04 12:52:54;;;;;;;2.07;1.87;;;;;;;;;;5140791;27;20203;-69
2021/05/04 12:55:21;;;;;;;5.33;1.83;;;;;;;;;;5140602;27;20315;-68
2021/05/04 12:57:48;;;;;;;3.37;1.90;;;;;;;;;;5140213;27;20289;-65
2021/05/04 13:00:18;;;;;;;4.30;1.97;;;;;;;;;;5129625;27;20792;-68
2021/05/04 13:02:45;;;;;;;2.30;1.67;;;;;;;;;;5111172;28;20241;-69
2021/05/04 13:05:19;;;;;;;2.23;1.63;;;;;;;;;;5111699;28;20231;-71
2021/05/04 13:07:57;;;;;;;4.43;1.53;;;;;;;;;;5132899;27;20206;-69
2021/05/04 13:10:29;;;;;;;5.40;1.57;;;;;;;;;;5139476;27;20239;-70
2021/05/04 13:19:28;;;;;;;1.63;1.53;;;;;;;;;;5119324;28;20542;-70
2021/05/04 13:30:15;;;;;;;7.03;2.07;;;;;;;;;;5118835;28;20196;-68
2021/05/04 13:32:45;;;;;;;1.60;1.50;;;;;;;;;;5116311;27;20224;-68
2021/05/04 13:35:15;;;;;;;2.97;1.50;;;;;;;;;;5119256;27;20300;-68
2021/05/04 13:37:50;;;;;;;3.53;1.63;;;;;;;;;;5119124;27;20204;-68
2021/05/04 13:40:29;;;;;;;2.73;1.87;;;;;;;;;;5117383;28;20657;-68
2021/05/04 13:48:30;;;;;;;3.10;1.80;;;;;;;;;;5106433;28;20288;-70
2021/05/04 13:50:58;;;;;;;2.63;1.80;;;;;;;;;;5106220;28;20204;-70
2021/05/04 13:53:25;;;;;;;2.80;1.50;;;;;;;;;;5100168;28;20201;-70
2021/05/04 13:55:52;;;;;;;2.17;1.30;;;;;;;;;;5104597;28;20308;-70
2021/05/04 13:58:19;;;;;;;3.33;1.50;;;;;;;;;;5112284;28;20280;-71
2021/05/04 14:00:55;;;;;;;3.23;1.87;;;;;;;;;;5106207;28;20229;-70
2021/05/04 14:03:28;;;;;;;1.40;1.30;;;;;;;;;;5107535;28;20197;-70
2021/05/04 14:06:19;;;;;;;5.13;1.63;;;;;;;;;;5110084;27;20661;-67
2021/05/04 14:09:11;;;;;;;1.37;1.27;;;;;;;;;;5139757;27;20246;-67
2021/05/04 14:14:54;;;;;;;1.30;1.20;;;;;;;;;;5118349;28;20248;-67
2021/05/04 14:28:22;;;;;;;1.70;1.50;;;;;;;;;;5116014;28;20208;-67
2021/05/04 14:30:49;;;;;;;3.97;1.73;;;;;;;;;;5116255;28;20228;-67
2021/05/04 14:33:16;;;;;;;2.90;1.60;;;;;;;;;;5116799;28;20200;-67
2021/05/04 14:35:46;;;;;;;1.10;1.10;;;;;;;;;;5116520;28;20659;-66
2021/05/04 14:44:10;;;;;;;1.30;1.30;;;;;;;;;;5118504;28;20258;-69
2021/05/04 14:57:57;;;;;;;3.00;1.80;;;;;;;;;;5116256;28;20241;-68
2021/05/04 15:00:47;;;;;;;4.63;1.60;;;;;;;;;;5116850;28;20266;-67
2021/05/04 15:03:14;;;;;;;2.70;1.60;;;;;;;;;;5115065;28;20228;-67
2021/05/04 15:05:42;;;;;;;6.03;1.73;;;;;;;;;;5116748;28;20280;-67
2021/05/04 15:08:09;;;;;;;2.20;1.60;;;;;;;;;;5120434;28;20196;-67
2021/05/04 15:10:36;;;;;;;2.97;1.50;;;;;;;;;;5138124;27;20296;-68
2021/05/04 15:13:06;;;;;;;1.87;1.67;;;;;;;;;;5124961;27;20671;-66
2021/05/04 15:15:42;;;;;;;2.17;1.80;;;;;;;;;;5138094;27;20251;-68
2021/05/04 15:18:17;;;;;;;1.83;1.53;;;;;;;;;;5137559;27;20314;-67
2021/05/04 15:21:24;;;;;;;3.60;1.50;;;;;;;;;;5136426;27;20255;-67
2021/05/04 15:23:51;;;;;;;1.73;1.63;;;;;;;;;;5137672;27;20235;-67
2021/05/04 15:26:19;;;;;;;5.27;1.37;;;;;;;;;;5136788;27;20786;-67
2021/05/04 15:28:45;;;;;;;3.87;1.60;;;;;;;;;;5137373;27;20287;-67
2021/05/04 15:31:13;;;;;;;4.70;1.70;;;;;;;;;;5137697;27;20291;-67
2021/05/04 15:33:40;;;;;;;1.50;1.40;;;;;;;;;;5137565;27;20243;-67
2021/05/04 15:36:12;;;;;;;5.80;1.50;;;;;;;;;;5120478;27;20221;-67
2021/05/04 15:38:39;;;;;;;4.80;1.53;;;;;;;;;;5117416;28;20209;-67
2021/05/04 15:41:06;;;;;;;3.97;1.50;;;;;;;;;;5117036;28;20205;-67
2021/05/04 15:43:34;;;;;;;2.07;1.30;;;;;;;;;;5121504;28;20235;-67
2021/05/04 15:46:28;;;;;;;2.13;1.30;;;;;;;;;;5121384;27;20229;-67
2021/05/04 15:48:59;;;;;;;1.83;1.57;;;;;;;;;;5121978;28;20205;-67